Airfield :
LOGIN :

Register | Disclaimer

   EN    FR    IT 

 










Legend :    VFR   Marginal VFR   IFR   Intensive IFR   Very Intensive IFR
Visi :
Ceiling :
>= 8 km
>= 3000ft
5 to 8 km
1000 to 3000 ft
1500m to 5 km
500 to 1000 ft
800 to 1500m
200 to 500 ft
< 800m
< 200 ft
Symbols :   Thunderstorms  Fog  Heavy snow  Heavy precipitations  Wind > 20 kt
SIGMETs :     Misc.  Thunderstorms  Icing  Turbulence  Mountain Waves  Volcanic Ashes







- Airport Elevation : 200 ft


EBBL - Klein Brogel AB

CURRENT METAR :
  • 281125Z 24007KT 9999 FEW020 BKN050 10/04 Q1014 BLU BLU TEMPO WHT

EXPIRED METARs :
  • 281113Z 25008KT 9999 FEW020 BKN050 09/04 Q1014 BLU BLU TEMPO WHT
  • 281055Z 25007KT 9999 -RA SCT020 BKN050 09/05 Q1014 WHT BLU TEMPO WHT
  • 281025Z 27003KT 9999 SCT020 BKN050 10/03 Q1014 WHT BLU TEMPO WHT
  • 280955Z 27005KT 9999 SCT017 BKN050 09/03 Q1014 WHT BLU TEMPO WHT
  • 280925Z 25005KT 9999 SCT017 BKN035 09/05 Q1014 WHT BLU TEMPO WHT
  • 280855Z 25007KT 9999 SCT017 BKN050 08/04 Q1014 WHT BLU TEMPO WHT

TAF TAF EBBL
Valid from the 28 at 10:00 until the 28 at 19:00 UTC


280841Z 2810/2819 24007KT 9999 SCT020 BKN050
TEMPO 2812/2819 30010G15KT 7000 -SHRA SCT014 BKN020
TEMPO 2816/2819 SCT030
No reported NOTAMs for that airfield.



MET'MAP, your aeronautical weather chart ! - Copyright ORBIFLY December 2007 - Disclaimer

ORBIFLY MET'MAP TEAM :

Programming & Development : Alexandra Zaïnal
Concept & Development : Baudouin d'Aumeries
Co-Development & Prog : Marc-Olivier Méhu
Technical & hardware support : Manuel Goepfert

Contact : metmap@orbifly.com




SOURCES & CREDITS :

   NOAA